Time;durP1;ratioP1;P1;durP2;ratioP2;P2;SDS_P1;SDS_P2;PMS_P1;PMS_P2;Temp;Humidity;BMP_temperature;BMP_pressure;BME280_temperature;BME280_humidity;BME280_pressure;Samples;Min_cycle;Max_cycle;Signal;HPM_P1;HPM_P2
2022/08/21 00:00:24;;;;;;;15.40;13.68;;;;;;;19.77;76.67;94397.00;5036000;28;20468;-65
2022/08/21 00:03:02;;;;;;;16.15;14.63;;;;;;;19.83;76.94;94392.63;5039020;28;20236;-65
2022/08/21 00:05:29;;;;;;;16.77;14.63;;;;;;;19.78;77.47;94385.31;5048738;28;20221;-65
2022/08/21 00:07:55;;;;;;;15.63;13.98;;;;;;;19.74;76.52;94378.78;5040640;28;20206;-65
2022/08/21 00:10:21;;;;;;;18.15;14.30;;;;;;;19.71;76.98;94381.91;5047008;28;20268;-65
2022/08/21 00:12:47;;;;;;;14.93;13.38;;;;;;;19.78;77.06;94385.31;5036455;28;20237;-65
2022/08/21 00:15:16;;;;;;;16.15;13.98;;;;;;;19.90;75.77;94381.91;5035675;28;20309;-65
2022/08/21 00:17:41;;;;;;;14.80;12.85;;;;;;;19.90;75.30;94373.88;5041606;28;20225;-65
2022/08/21 00:20:09;;;;;;;17.77;13.18;;;;;;;19.87;75.58;94372.50;5035694;28;20202;-65
2022/08/21 00:22:35;;;;;;;16.35;13.35;;;;;;;19.88;75.70;94367.97;5036532;28;20198;-65
2022/08/21 00:25:03;;;;;;;14.75;13.32;;;;;;;19.83;76.78;94372.13;5039845;28;20225;-65
2022/08/21 00:27:28;;;;;;;16.08;13.65;;;;;;;19.82;77.32;94373.16;5041757;28;20217;-65
2022/08/21 00:29:55;;;;;;;14.63;13.13;;;;;;;19.78;78.03;94365.81;5043719;28;20328;-65
2022/08/21 00:32:24;;;;;;;10.90;9.65;;;;;;;19.75;76.54;94367.09;5040611;28;20205;-65
2022/08/21 00:34:51;;;;;;;10.20;9.05;;;;;;;19.76;75.28;94360.72;5037380;28;20220;-65
2022/08/21 00:37:16;;;;;;;12.20;9.82;;;;;;;19.78;74.63;94357.81;5039363;28;20225;-65
2022/08/21 00:39:42;;;;;;;11.88;9.18;;;;;;;19.78;74.76;94355.16;5037363;28;20225;-65
2022/08/21 00:42:08;;;;;;;10.68;9.45;;;;;;;19.76;74.94;94366.06;5035738;28;20241;-65
2022/08/21 00:44:34;;;;;;;10.23;9.20;;;;;;;19.73;74.89;94361.19;5041511;28;20229;-65
2022/08/21 00:47:00;;;;;;;10.95;9.63;;;;;;;19.69;75.80;94364.50;5039802;28;20202;-65
2022/08/21 00:49:25;;;;;;;11.15;9.18;;;;;;;19.75;74.61;94369.78;5038710;28;20217;-65
2022/08/21 00:51:55;;;;;;;11.88;9.40;;;;;;;19.76;74.47;94379.41;5040780;28;20229;-65
2022/08/21 00:54:24;;;;;;;11.85;10.45;;;;;;;19.77;75.05;94377.53;5035804;28;20248;-65
2022/08/21 00:56:53;;;;;;;15.55;12.40;;;;;;;19.85;74.56;94371.09;5038544;28;20302;-65
2022/08/21 00:59:21;;;;;;;22.02;15.93;;;;;;;19.88;74.15;94365.28;5036722;28;20216;-65
2022/08/21 01:01:47;;;;;;;20.25;15.30;;;;;;;19.90;74.25;94369.38;5038633;28;20206;-65
2022/08/21 01:04:12;;;;;;;21.38;19.17;;;;;;;19.87;74.26;94353.81;5042071;28;20224;-65
2022/08/21 01:06:38;;;;;;;19.67;17.58;;;;;;;19.70;75.28;94358.13;5041292;28;20225;-65
2022/08/21 01:09:04;;;;;;;19.92;17.33;;;;;;;19.68;76.02;94353.03;5038786;28;20222;-65
2022/08/21 01:11:30;;;;;;;19.27;17.20;;;;;;;19.73;76.20;94350.50;5036407;28;20352;-65
2022/08/21 01:13:55;;;;;;;22.73;17.92;;;;;;;19.69;76.42;94341.31;5037416;28;20213;-65
2022/08/21 01:16:22;;;;;;;21.45;18.67;;;;;;;19.85;75.04;94347.88;5033943;28;20277;-65
2022/08/21 01:18:49;;;;;;;24.23;20.05;;;;;;;19.87;74.56;94340.47;5034471;28;20229;-65
2022/08/21 01:21:19;;;;;;;27.90;20.58;;;;;;;19.87;74.99;94343.13;5036838;28;20226;-65
2022/08/21 01:23:46;;;;;;;24.27;19.98;;;;;;;19.73;76.02;94342.50;5034595;28;20308;-65
2022/08/21 01:26:15;;;;;;;23.17;18.48;;;;;;;19.64;77.42;94333.13;5043821;28;20213;-65
2022/08/21 01:28:45;;;;;;;23.88;19.35;;;;;;;19.71;76.99;94341.09;5035733;28;20641;-65
2022/08/21 01:31:13;;;;;;;26.65;19.10;;;;;;;19.67;76.51;94337.22;5035784;28;20244;-65
2022/08/21 01:33:39;;;;;;;21.92;17.98;;;;;;;19.69;76.40;94338.63;5036653;28;20225;-65
2022/08/21 01:36:05;;;;;;;19.98;17.85;;;;;;;19.69;76.80;94338.63;5036599;28;20227;-65
2022/08/21 01:38:30;;;;;;;24.52;18.05;;;;;;;19.66;76.17;94333.75;5037711;28;20340;-65
2022/08/21 01:40:56;;;;;;;19.30;16.92;;;;;;;19.68;76.55;94346.88;5037968;28;20248;-65
2022/08/21 01:43:21;;;;;;;20.15;17.02;;;;;;;19.68;76.36;94347.69;5035022;28;20288;-65
2022/08/21 01:45:47;;;;;;;16.90;15.07;;;;;;;19.65;76.36;94345.44;5033106;28;20230;-65
2022/08/21 01:48:12;;;;;;;15.32;12.77;;;;;;;19.63;76.42;94344.84;5043859;28;20275;-65
2022/08/21 01:50:38;;;;;;;19.42;15.60;;;;;;;19.55;77.29;94337.97;5036958;28;20228;-65
2022/08/21 01:53:04;;;;;;;16.65;14.60;;;;;;;19.65;77.04;94345.44;5034593;28;20214;-65
2022/08/21 01:55:29;;;;;;;15.68;12.57;;;;;;;19.59;76.70;94343.66;5036901;28;20305;-65
2022/08/21 01:57:55;;;;;;;19.67;15.73;;;;;;;19.58;78.95;94347.38;5043428;28;20264;-65
2022/08/21 02:00:24;;;;;;;18.40;15.23;;;;;;;19.46;79.73;94346.47;5034331;28;20279;-66
2022/08/21 02:02:51;;;;;;;12.15;10.00;;;;;;;19.51;77.41;94342.13;5033052;28;20305;-66
2022/08/21 02:05:18;;;;;;;15.38;13.30;;;;;;;19.50;78.50;94348.47;5037775;28;20209;-65
2022/08/21 02:07:47;;;;;;;17.38;14.00;;;;;;;19.54;78.40;94359.50;5033044;28;20213;-66
2022/08/21 02:10:15;;;;;;;17.70;15.55;;;;;;;19.51;79.04;94362.63;5035439;28;20221;-65
2022/08/21 02:12:41;;;;;;;20.20;14.93;;;;;;;19.47;79.95;94350.78;5038911;28;20225;-66
2022/08/21 02:15:07;;;;;;;20.05;16.27;;;;;;;19.50;79.82;94350.34;5038300;28;20229;-65
2022/08/21 02:17:41;;;;;;;18.23;15.73;;;;;;;19.55;79.44;94366.50;5037008;28;20224;-65
2022/08/21 02:20:08;;;;;;;20.17;15.48;;;;;;;19.47;80.16;94356.94;5043808;28;20201;-65
2022/08/21 02:22:33;;;;;;;18.90;15.93;;;;;;;19.54;79.74;94360.34;5036869;28;20213;-65
2022/08/21 02:24:59;;;;;;;22.15;18.05;;;;;;;19.57;79.84;94367.09;5039014;28;20233;-65
2022/08/21 02:27:25;;;;;;;21.85;17.13;;;;;;;19.60;79.13;94361.31;5036438;28;20225;-65
2022/08/21 02:29:50;;;;;;;21.30;16.30;;;;;;;19.59;78.73;94365.81;5043244;28;20240;-65
2022/08/21 02:32:16;;;;;;;18.92;15.40;;;;;;;19.66;78.49;94365.75;5040391;28;20206;-65
2022/08/21 02:34:41;;;;;;;18.38;15.65;;;;;;;19.60;78.27;94364.78;5040132;28;20284;-65
2022/08/21 02:37:07;;;;;;;17.38;14.93;;;;;;;19.66;77.99;94373.75;5032916;28;20250;-65
2022/08/21 02:39:32;;;;;;;17.55;15.65;;;;;;;19.54;78.15;94368.34;5034962;28;20226;-65
2022/08/21 02:41:57;;;;;;;17.75;14.75;;;;;;;19.56;78.59;94363.59;5034978;28;20233;-65
2022/08/21 02:44:23;;;;;;;18.20;15.80;;;;;;;19.60;78.83;94369.31;5039569;28;20220;-65
2022/08/21 02:46:48;;;;;;;18.23;16.13;;;;;;;19.53;78.93;94366.69;5040939;28;20201;-65
2022/08/21 02:49:14;;;;;;;19.85;16.33;;;;;;;19.55;79.17;94359.31;5042712;28;20213;-65
2022/08/21 02:51:40;;;;;;;18.95;16.35;;;;;;;19.56;79.16;94354.78;5036444;28;20249;-65
2022/08/21 02:54:05;;;;;;;18.55;15.65;;;;;;;19.56;79.29;94365.44;5035647;28;20521;-65
2022/08/21 02:56:31;;;;;;;18.67;16.70;;;;;;;19.52;79.46;94372.28;5033454;28;20919;-65
2022/08/21 02:58:56;;;;;;;17.67;15.32;;;;;;;19.49;79.04;94367.38;5038008;28;20212;-65
2022/08/21 03:01:22;;;;;;;18.05;15.25;;;;;;;19.55;78.99;94369.16;5037664;28;20252;-65
2022/08/21 03:03:49;;;;;;;18.23;16.10;;;;;;;19.57;79.06;94367.91;5041857;28;20221;-66
2022/08/21 03:06:16;;;;;;;19.05;15.25;;;;;;;19.59;78.85;94370.31;5040322;28;20279;-66
2022/08/21 03:08:44;;;;;;;17.27;15.38;;;;;;;19.60;78.78;94371.97;5044544;28;20592;-64
2022/08/21 03:11:11;;;;;;;16.25;14.52;;;;;;;19.57;78.88;94369.75;5034331;28;20216;-64
2022/08/21 03:13:38;;;;;;;16.45;14.73;;;;;;;19.52;79.59;94365.09;5036141;28;20205;-65
2022/08/21 03:16:04;;;;;;;16.92;14.05;;;;;;;19.44;80.28;94360.06;5032404;28;20222;-65
2022/08/21 03:18:29;;;;;;;18.48;13.15;;;;;;;19.53;79.08;94360.56;5033221;28;20271;-65
2022/08/21 03:20:55;;;;;;;14.88;11.57;;;;;;;19.50;78.22;94356.47;5040372;28;20222;-66
2022/08/21 03:23:22;;;;;;;11.50;9.48;;;;;;;19.43;77.89;94365.59;5040368;28;20210;-64
2022/08/21 03:25:48;;;;;;;13.38;10.45;;;;;;;19.50;77.69;94369.00;5038003;28;20295;-65
2022/08/21 03:28:17;;;;;;;15.77;10.75;;;;;;;19.54;77.77;94376.34;5035029;28;20218;-65
2022/08/21 03:30:45;;;;;;;17.60;12.20;;;;;;;19.42;79.18;94372.78;5036865;28;20229;-65
2022/08/21 03:33:11;;;;;;;11.50;9.93;;;;;;;19.42;79.53;94359.44;5035158;28;20225;-65
2022/08/21 03:35:36;;;;;;;16.33;10.18;;;;;;;19.42;79.82;94367.44;5037937;28;20308;-65
2022/08/21 03:38:02;;;;;;;11.93;9.23;;;;;;;19.40;79.28;94358.84;5033556;28;20812;-65
2022/08/21 03:40:28;;;;;;;10.38;8.55;;;;;;;19.46;79.04;94360.66;5038743;28;20227;-65
2022/08/21 03:42:53;;;;;;;12.50;9.23;;;;;;;19.48;79.26;94357.75;5038945;28;20241;-65
2022/08/21 03:45:20;;;;;;;11.15;9.77;;;;;;;19.45;79.29;94360.84;5041617;28;20233;-65
2022/08/21 03:47:58;;;;;;;12.50;10.25;;;;;;;19.43;79.47;94361.06;5040789;28;20235;-65
2022/08/21 03:50:25;;;;;;;10.13;9.07;;;;;;;19.41;79.72;94362.34;5035714;28;20214;-65
2022/08/21 03:52:51;;;;;;;10.40;7.53;;;;;;;19.48;78.53;94357.75;5044258;28;20693;-65
2022/08/21 03:55:17;;;;;;;9.23;6.72;;;;;;;19.39;78.31;94371.38;5040656;28;20252;-65
2022/08/21 03:57:43;;;;;;;8.43;5.75;;;;;;;19.35;77.88;94374.69;5043385;28;20237;-65
2022/08/21 04:00:11;;;;;;;6.68;5.40;;;;;;;19.30;76.48;94387.88;5039577;28;20291;-65
2022/08/21 04:02:38;;;;;;;10.38;4.93;;;;;;;19.27;76.05;94378.50;5036360;28;20271;-65
2022/08/21 04:05:05;;;;;;;5.68;4.68;;;;;;;19.21;76.17;94390.00;5036173;28;20213;-65
2022/08/21 04:07:30;;;;;;;8.25;4.85;;;;;;;19.12;76.97;94384.16;5035331;28;20228;-65
2022/08/21 04:09:55;;;;;;;7.90;5.18;;;;;;;19.14;76.74;94390.09;5038263;28;20209;-65
2022/08/21 04:12:21;;;;;;;6.55;4.93;;;;;;;19.10;77.07;94386.22;5037525;28;20245;-65
2022/08/21 04:14:47;;;;;;;10.30;6.20;;;;;;;19.18;77.06;94387.78;5044372;28;20218;-65
2022/08/21 04:17:12;;;;;;;9.73;5.78;;;;;;;19.25;77.05;94380.56;5045357;28;20216;-65
2022/08/21 04:19:38;;;;;;;9.07;7.55;;;;;;;19.24;77.20;94378.09;5039699;28;20308;-65
2022/08/21 04:22:03;;;;;;;10.25;7.82;;;;;;;19.23;77.00;94366.63;5040852;28;20226;-65
2022/08/21 04:24:29;;;;;;;9.85;7.85;;;;;;;19.18;77.50;94379.78;5041968;28;20225;-65
2022/08/21 04:26:55;;;;;;;10.52;8.05;;;;;;;19.21;77.44;94379.34;5037355;28;20240;-65
2022/08/21 04:29:20;;;;;;;9.10;6.97;;;;;;;19.29;77.34;94376.41;5039303;28;20210;-65
2022/08/21 04:31:45;;;;;;;13.95;8.85;;;;;;;19.28;77.70;94381.97;5045294;28;20297;-65
2022/08/21 04:34:11;;;;;;;12.43;8.48;;;;;;;19.32;77.22;94383.94;5041387;28;20226;-65
2022/08/21 04:36:37;;;;;;;11.57;9.13;;;;;;;19.27;77.12;94386.50;5039642;28;20232;-65
2022/08/21 04:39:02;;;;;;;9.85;8.20;;;;;;;19.32;77.02;94383.13;5040698;28;20226;-65
2022/08/21 04:41:28;;;;;;;12.52;8.45;;;;;;;19.31;76.64;94370.84;5036325;28;20316;-66
2022/08/21 04:43:55;;;;;;;8.98;8.05;;;;;;;19.37;76.23;94377.97;5037773;28;20289;-65
2022/08/21 04:46:21;;;;;;;8.57;7.68;;;;;;;19.32;75.72;94380.47;5044143;28;20226;-66
2022/08/21 04:48:47;;;;;;;10.55;8.40;;;;;;;19.29;75.82;94378.25;5037792;28;20313;-65
2022/08/21 04:51:19;;;;;;;9.30;8.40;;;;;;;18.99;78.14;94373.63;5040685;28;20292;-63
2022/08/21 04:53:52;;;;;;;10.10;8.73;;;;;;;18.93;78.30;94383.31;5041372;28;20221;-63
2022/08/21 04:56:25;;;;;;;9.40;8.38;;;;;;;19.22;77.23;94374.84;5037542;28;20343;-61
2022/08/21 04:58:53;;;;;;;9.80;8.73;;;;;;;19.26;76.72;94363.50;5034736;28;20202;-65
2022/08/21 05:01:22;;;;;;;10.95;8.30;;;;;;;19.33;76.57;94366.13;5034553;28;20230;-66
2022/08/21 05:03:50;;;;;;;9.98;8.98;;;;;;;19.43;76.57;94368.25;5036762;28;20296;-65
2022/08/21 05:06:16;;;;;;;12.23;9.00;;;;;;;19.48;76.67;94363.06;5045024;28;20321;-65
2022/08/21 05:08:44;;;;;;;9.95;8.95;;;;;;;19.64;76.24;94365.13;5033568;28;20226;-65
2022/08/21 05:11:09;;;;;;;11.32;8.95;;;;;;;19.80;75.54;94369.88;5043266;28;20206;-66
2022/08/21 05:13:35;;;;;;;10.95;9.90;;;;;;;19.85;75.48;94369.22;5032609;28;20309;-65
2022/08/21 05:16:01;;;;;;;12.18;8.52;;;;;;;19.93;75.02;94376.91;5037214;28;20233;-65
2022/08/21 05:18:26;;;;;;;9.65;8.18;;;;;;;19.95;74.94;94379.38;5033388;28;20233;-65
2022/08/21 05:20:52;;;;;;;8.75;6.72;;;;;;;19.95;73.15;94366.84;5031804;28;20309;-64
2022/08/21 05:23:17;;;;;;;9.13;6.63;;;;;;;19.97;73.74;94358.63;5040884;28;20282;-65
2022/08/21 05:25:43;;;;;;;8.32;5.63;;;;;;;19.85;73.83;94365.75;5044517;28;20226;-65
2022/08/21 05:28:10;;;;;;;6.13;5.13;;;;;;;19.95;73.64;94376.69;5035443;28;20236;-65
2022/08/21 05:30:36;;;;;;;6.13;4.43;;;;;;;19.96;72.85;94380.97;5032812;28;20293;-65
2022/08/21 05:33:04;;;;;;;8.40;4.25;;;;;;;20.05;71.79;94379.66;5035824;28;20229;-64
2022/08/21 05:35:30;;;;;;;6.55;4.28;;;;;;;20.14;72.10;94378.28;5043320;28;20226;-64
2022/08/21 05:37:56;;;;;;;8.73;4.78;;;;;;;20.38;70.85;94368.50;5034216;28;20218;-63
2022/08/21 05:40:22;;;;;;;5.53;4.13;;;;;;;20.53;69.90;94372.56;5036160;28;20234;-64
2022/08/21 05:42:51;;;;;;;6.10;3.90;;;;;;;20.52;68.55;94363.75;5037015;28;20241;-65
2022/08/21 05:45:17;;;;;;;8.65;3.80;;;;;;;20.60;68.72;94360.78;5041072;28;20237;-65
2022/08/21 05:47:42;;;;;;;5.45;3.85;;;;;;;20.63;69.97;94360.31;5033393;28;20238;-65
2022/08/21 05:50:08;;;;;;;6.53;3.78;;;;;;;20.70;70.16;94350.34;5036842;28;20206;-65
2022/08/21 05:52:34;;;;;;;5.10;3.70;;;;;;;20.69;68.72;94354.06;5038031;28;20205;-66
2022/08/21 05:54:59;;;;;;;6.35;3.50;;;;;;;20.68;68.36;94356.97;5037192;28;20226;-66
2022/08/21 05:57:25;;;;;;;6.13;4.85;;;;;;;20.69;69.56;94354.06;5032559;28;20236;-64
2022/08/21 05:59:51;;;;;;;7.75;4.55;;;;;;;20.59;70.56;94353.03;5044019;28;20316;-65
2022/08/21 06:02:21;;;;;;;9.15;6.47;;;;;;;20.11;73.21;94362.72;5036657;28;20210;-65
2022/08/21 06:04:47;;;;;;;8.75;7.80;;;;;;;20.32;73.08;94361.41;5037697;28;20202;-65
2022/08/21 06:07:12;;;;;;;10.40;7.55;;;;;;;20.47;73.08;94367.13;5038586;28;20222;-66
2022/08/21 06:09:38;;;;;;;9.50;8.05;;;;;;;20.58;72.98;94362.06;5040775;28;20252;-66
2022/08/21 06:12:08;;;;;;;10.60;8.23;;;;;;;20.84;72.05;94358.97;5042088;28;20256;-64
2022/08/21 06:14:35;;;;;;;10.43;8.43;;;;;;;21.02;71.30;94359.91;5036840;28;20240;-64
2022/08/21 06:17:09;;;;;;;10.57;8.55;;;;;;;21.37;69.43;94365.22;5034090;28;20267;-64
2022/08/21 06:19:35;;;;;;;9.35;7.72;;;;;;;21.24;69.07;94360.94;5042151;28;20245;-63
2022/08/21 06:22:00;;;;;;;10.60;8.45;;;;;;;21.53;67.23;94364.53;5033419;28;20226;-64
2022/08/21 06:24:26;;;;;;;9.38;7.57;;;;;;;21.29;66.82;94362.91;5035851;28;20226;-65
2022/08/21 06:26:53;;;;;;;9.15;7.45;;;;;;;21.28;67.31;94361.31;5031960;28;20248;-64
2022/08/21 06:29:19;;;;;;;9.82;7.05;;;;;;;21.37;67.98;94354.53;5032538;28;20206;-69
2022/08/21 06:31:46;;;;;;;10.25;9.32;;;;;;;21.57;68.05;94362.19;5033321;28;20206;-65
2022/08/21 06:34:12;;;;;;;9.00;8.20;;;;;;;21.64;68.05;94357.53;5043971;28;20256;-65
2022/08/21 06:36:38;;;;;;;11.77;9.50;;;;;;;21.65;68.92;94361.84;5038367;28;20222;-65
2022/08/21 06:39:04;;;;;;;9.70;8.90;;;;;;;21.75;67.84;94359.34;5031716;28;20222;-65
2022/08/21 06:41:29;;;;;;;11.68;9.25;;;;;;;21.90;67.39;94360.72;5034953;28;20306;-65
2022/08/21 06:43:56;;;;;;;10.73;9.57;;;;;;;22.10;66.62;94355.75;5031660;28;20225;-65
2022/08/21 06:46:26;;;;;;;12.60;9.02;;;;;;;21.99;65.83;94365.44;5033721;28;20242;-65
2022/08/21 06:48:51;;;;;;;13.82;10.43;;;;;;;21.98;66.13;94374.53;5042433;28;20225;-65
2022/08/21 06:51:17;;;;;;;14.15;10.32;;;;;;;21.73;66.30;94372.19;5046081;28;20251;-65
2022/08/21 06:53:42;;;;;;;14.43;10.63;;;;;;;21.77;65.56;94367.97;5042250;28;20225;-65
2022/08/21 06:56:08;;;;;;;10.88;9.27;;;;;;;21.80;66.04;94364.00;5032784;28;20293;-65
2022/08/21 06:58:33;;;;;;;9.52;8.60;;;;;;;21.90;64.56;94377.59;5033898;28;20336;-65
2022/08/21 07:00:59;;;;;;;9.38;8.40;;;;;;;21.89;65.20;94381.34;5029244;28;20234;-64
2022/08/21 07:03:30;;;;;;;10.35;9.07;;;;;;;21.84;64.84;94385.75;5029741;28;20217;-64
2022/08/21 07:05:58;;;;;;;11.35;8.13;;;;;;;21.77;64.38;94385.91;5033911;28;20238;-64
2022/08/21 07:08:24;;;;;;;10.63;8.52;;;;;;;22.01;63.73;94375.94;5032775;28;20413;-65
2022/08/21 07:10:50;;;;;;;10.25;8.45;;;;;;;21.97;63.46;94369.41;5036011;28;20377;-64
2022/08/21 07:13:16;;;;;;;12.20;8.32;;;;;;;22.21;63.56;94370.16;5039682;28;20237;-64
2022/08/21 07:15:42;;;;;;;8.77;7.88;;;;;;;22.24;62.44;94372.38;5029181;28;20229;-64
2022/08/21 07:18:08;;;;;;;8.27;7.28;;;;;;;22.29;62.18;94377.81;5036219;28;20252;-64
2022/08/21 07:20:34;;;;;;;8.05;7.15;;;;;;;22.33;61.97;94378.16;5045648;28;20257;-64
2022/08/21 07:23:04;;;;;;;8.18;7.38;;;;;;;22.32;62.28;94373.84;5041732;28;20242;-64
2022/08/21 07:25:30;;;;;;;10.25;7.40;;;;;;;22.35;62.89;94370.72;5039089;28;20222;-64
2022/08/21 07:27:55;;;;;;;10.45;7.75;;;;;;;22.20;63.82;94369.34;5039357;28;20247;-64
2022/08/21 07:30:22;;;;;;;8.30;7.43;;;;;;;22.09;64.27;94362.16;5042870;28;20233;-64
2022/08/21 07:32:49;;;;;;;8.32;7.40;;;;;;;21.88;64.30;94358.28;5041160;28;20229;-64
2022/08/21 07:35:15;;;;;;;8.82;7.38;;;;;;;21.94;64.75;94361.84;5046710;28;20206;-64
2022/08/21 07:37:40;;;;;;;10.80;7.90;;;;;;;22.06;64.19;94356.47;5035256;28;20197;-64
2022/08/21 07:40:06;;;;;;;10.45;7.65;;;;;;;22.30;63.02;94351.88;5036083;28;20229;-64
2022/08/21 07:42:32;;;;;;;9.43;7.38;;;;;;;22.39;61.92;94359.25;5039610;28;20234;-65
2022/08/21 07:44:57;;;;;;;8.85;6.90;;;;;;;22.43;62.35;94356.91;5044836;28;20271;-64
2022/08/21 07:47:23;;;;;;;10.95;7.50;;;;;;;22.51;62.18;94347.66;5048932;28;20201;-64
2022/08/21 07:49:48;;;;;;;9.82;6.72;;;;;;;22.56;60.70;94347.75;5045210;28;20212;-65
2022/08/21 07:52:14;;;;;;;10.93;7.53;;;;;;;22.78;59.94;94354.03;5043932;28;20245;-65
2022/08/21 07:54:39;;;;;;;7.85;6.78;;;;;;;23.03;58.45;94348.25;5045883;28;20312;-64
2022/08/21 07:57:04;;;;;;;11.75;7.20;;;;;;;23.00;58.66;94345.25;5044326;28;20221;-65
2022/08/21 07:59:30;;;;;;;9.90;6.70;;;;;;;23.10;59.31;94345.41;5039100;28;21018;-64
2022/08/21 08:01:56;;;;;;;10.43;7.18;;;;;;;23.36;59.48;94343.88;5036667;28;20232;-65
2022/08/21 08:04:22;;;;;;;10.52;7.22;;;;;;;23.51;58.61;94351.34;5038064;28;20226;-65
2022/08/21 08:06:47;;;;;;;10.38;8.18;;;;;;;23.68;58.16;94346.75;5035530;28;20229;-64
2022/08/21 08:09:12;;;;;;;10.35;7.32;;;;;;;23.83;57.50;94343.44;5038308;28;20689;-64
2022/08/21 08:11:42;;;;;;;8.88;7.50;;;;;;;24.06;55.58;94353.13;5039093;28;20221;-64
2022/08/21 08:14:08;;;;;;;8.95;7.50;;;;;;;23.87;56.37;94352.63;5044212;28;20206;-65
2022/08/21 08:16:33;;;;;;;10.32;7.32;;;;;;;23.63;57.58;94346.69;5035941;28;20193;-64
2022/08/21 08:18:59;;;;;;;14.95;9.13;;;;;;;23.31;58.46;94350.00;5046690;28;20244;-64
2022/08/21 08:21:24;;;;;;;9.75;8.80;;;;;;;23.09;59.35;94339.25;5040679;28;20217;-64
2022/08/21 08:23:50;;;;;;;10.10;8.27;;;;;;;23.39;59.29;94348.78;5037492;28;20241;-63
2022/08/21 08:26:15;;;;;;;10.65;9.63;;;;;;;23.03;60.11;94345.56;5038510;28;20240;-63
2022/08/21 08:28:41;;;;;;;10.98;9.50;;;;;;;23.36;58.13;94351.94;5039598;28;20271;-64
2022/08/21 08:31:07;;;;;;;14.55;9.23;;;;;;;23.44;58.35;94351.53;5036067;28;20284;-64
2022/08/21 08:33:32;;;;;;;14.10;9.48;;;;;;;23.64;58.12;94347.50;5036368;28;20218;-65
2022/08/21 08:35:58;;;;;;;10.35;9.40;;;;;;;23.47;58.04;94355.56;5037237;28;20230;-65
2022/08/21 08:38:25;;;;;;;11.68;9.55;;;;;;;23.68;57.19;94356.66;5038206;28;20201;-65
2022/08/21 08:41:13;;;;;;;11.15;9.98;;;;;;;23.61;56.25;94350.66;5037183;28;20263;-65
2022/08/21 08:43:42;;;;;;;11.30;9.05;;;;;;;23.67;56.25;94358.53;5035862;28;20225;-64
2022/08/21 08:46:14;;;;;;;10.68;9.43;;;;;;;23.72;56.38;94361.31;5037875;28;20242;-64
2022/08/21 08:48:54;;;;;;;10.20;8.77;;;;;;;23.64;55.91;94358.22;5033658;28;20228;-63
2022/08/21 08:51:44;;;;;;;10.85;8.60;;;;;;;23.45;56.43;94357.72;5043715;28;20255;-63
2022/08/21 08:54:35;;;;;;;11.85;8.38;;;;;;;23.71;56.23;94351.66;5036429;28;20229;-64
2022/08/21 08:57:02;;;;;;;11.95;8.63;;;;;;;23.75;56.21;94342.00;5034777;28;20282;-64
2022/08/21 08:59:39;;;;;;;12.43;8.77;;;;;;;23.68;56.13;94341.38;5037425;28;20229;-63
2022/08/21 09:02:05;;;;;;;12.98;9.30;;;;;;;23.62;55.76;94341.53;5044171;28;20344;-64
2022/08/21 09:04:31;;;;;;;9.32;7.93;;;;;;;23.54;55.80;94337.41;5037388;28;20352;-64
2022/08/21 09:07:38;;;;;;;9.07;7.75;;;;;;;23.49;56.47;94340.03;5035883;28;20225;-64
2022/08/21 09:10:10;;;;;;;11.48;7.45;;;;;;;23.95;54.91;94333.41;5039145;28;20225;-64
2022/08/21 09:12:38;;;;;;;8.95;7.35;;;;;;;23.97;55.04;94333.13;5042190;28;20320;-65
2022/08/21 09:15:26;;;;;;;10.63;8.13;;;;;;;24.06;54.24;94322.75;5046033;28;20225;-64
2022/08/21 09:18:09;;;;;;;9.00;7.57;;;;;;;23.87;54.33;94323.09;5039268;28;20231;-64
2022/08/21 09:20:41;;;;;;;10.10;8.32;;;;;;;24.10;53.55;94316.63;5041032;28;20232;-64
2022/08/21 09:23:21;;;;;;;10.23;8.65;;;;;;;24.38;53.41;94315.56;5038712;28;20205;-64
2022/08/21 09:25:58;;;;;;;10.18;7.90;;;;;;;24.48;53.03;94317.53;5037998;28;20264;-64
2022/08/21 09:28:23;;;;;;;10.00;8.05;;;;;;;24.34;53.12;94317.13;5035191;28;20230;-64
2022/08/21 09:30:51;;;;;;;10.50;7.78;;;;;;;24.58;52.60;94312.25;5038164;28;20226;-64
2022/08/21 09:33:17;;;;;;;8.27;7.45;;;;;;;24.53;52.64;94308.72;5042343;28;20221;-64
2022/08/21 09:35:52;;;;;;;8.45;7.40;;;;;;;24.81;51.55;94315.69;5037602;28;20282;-64
2022/08/21 09:38:34;;;;;;;8.73;7.72;;;;;;;24.70;51.70;94313.97;5039576;28;20209;-65
2022/08/21 09:41:07;;;;;;;11.35;7.90;;;;;;;24.52;52.67;94318.66;5042895;28;20291;-65
2022/08/21 09:43:33;;;;;;;8.23;7.22;;;;;;;24.26;53.13;94314.09;5034629;28;20835;-64
2022/08/21 09:46:21;;;;;;;10.15;7.03;;;;;;;24.31;53.59;94314.16;5035690;28;20225;-64
2022/08/21 09:48:49;;;;;;;10.43;7.40;;;;;;;24.12;53.60;94309.13;5037444;28;20229;-64
2022/08/21 09:51:19;;;;;;;8.52;7.38;;;;;;;24.32;53.01;94303.13;5034322;28;20225;-64
2022/08/21 09:53:48;;;;;;;11.40;6.82;;;;;;;24.31;53.27;94300.72;5036812;28;20226;-65
2022/08/21 09:59:20;;;;;;;7.45;6.78;;;;;;;24.34;53.29;94302.88;5033284;28;20217;-64
2022/08/21 10:01:49;;;;;;;11.25;6.55;;;;;;;24.51;53.21;94300.09;5036518;28;20638;-64
2022/08/21 10:04:20;;;;;;;9.13;6.18;;;;;;;24.59;52.37;94299.63;5040680;28;20240;-65
2022/08/21 10:06:45;;;;;;;8.70;6.18;;;;;;;24.79;52.61;94299.00;5042383;28;20225;-64
2022/08/21 10:09:17;;;;;;;11.32;6.45;;;;;;;24.89;51.24;94299.06;5037897;28;20213;-65
2022/08/21 10:12:13;;;;;;;7.28;5.55;;;;;;;24.71;51.40;94299.47;5032689;28;20232;-64
2022/08/21 10:15:01;;;;;;;8.32;6.45;;;;;;;24.89;51.18;94301.75;5029834;28;20221;-65
2022/08/21 10:17:43;;;;;;;8.02;5.70;;;;;;;25.08;51.42;94294.88;5036180;28;20221;-64
2022/08/21 10:20:20;;;;;;;8.82;5.55;;;;;;;25.08;52.13;94294.09;5035577;28;20219;-65
2022/08/21 10:23:23;;;;;;;11.07;6.03;;;;;;;25.01;50.52;94286.22;5033788;28;20225;-64
2022/08/21 10:26:08;;;;;;;10.45;6.03;;;;;;;25.44;49.56;94283.53;5038125;28;20222;-64
2022/08/21 10:28:40;;;;;;;6.32;5.40;;;;;;;25.42;50.07;94273.03;5036351;28;20225;-64
2022/08/21 10:31:22;;;;;;;6.30;5.47;;;;;;;25.70;49.22;94279.06;5041486;28;20240;-65
2022/08/21 10:33:56;;;;;;;9.90;6.10;;;;;;;25.74;48.72;94278.28;5035934;28;20282;-64
2022/08/21 10:36:49;;;;;;;9.13;5.85;;;;;;;25.71;48.00;94281.50;5040037;28;20235;-64
2022/08/21 10:39:18;;;;;;;7.50;5.70;;;;;;;26.18;47.84;94269.78;5033402;28;20324;-64
2022/08/21 10:42:02;;;;;;;6.78;5.88;;;;;;;26.49;47.39;94263.59;5035860;28;20230;-65
2022/08/21 10:44:42;;;;;;;8.63;6.28;;;;;;;26.47;47.38;94260.38;5041033;28;20239;-64
2022/08/21 10:47:23;;;;;;;7.80;5.88;;;;;;;26.53;48.08;94264.72;5031947;28;20206;-64
2022/08/21 10:49:58;;;;;;;7.40;5.78;;;;;;;26.84;47.46;94260.13;5035520;28;20229;-64
2022/08/21 10:52:50;;;;;;;6.72;5.57;;;;;;;27.08;46.19;94254.97;5033250;28;20222;-64
2022/08/21 10:55:25;;;;;;;7.13;5.30;;;;;;;27.06;46.29;94257.13;5039030;28;20297;-67
2022/08/21 10:58:00;;;;;;;7.43;5.28;;;;;;;27.14;46.04;94250.34;5038452;28;20229;-64
2022/08/21 11:00:55;;;;;;;10.80;6.32;;;;;;;26.89;46.16;94245.81;5040078;28;20225;-64
2022/08/21 11:03:44;;;;;;;6.40;5.47;;;;;;;27.10;45.96;94241.97;5042155;28;20229;-64
2022/08/21 11:06:17;;;;;;;7.70;5.22;;;;;;;27.45;45.19;94242.97;5036175;28;20226;-64
2022/08/21 11:08:46;;;;;;;5.55;4.95;;;;;;;27.54;45.03;94238.63;5037239;28;20218;-63
2022/08/21 11:12:01;;;;;;;7.07;5.13;;;;;;;27.62;44.68;94232.66;5041328;28;20189;-64
2022/08/21 11:15:01;;;;;;;7.70;4.93;;;;;;;27.80;43.88;94225.00;4932556;29;20221;-63
2022/08/21 11:17:43;;;;;;;7.00;4.78;;;;;;;28.21;42.38;94222.06;4894789;29;20237;-63
2022/08/21 11:20:36;;;;;;;6.15;5.32;;;;;;;28.28;41.77;94227.94;4893194;29;20221;-63
2022/08/21 11:23:13;;;;;;;5.63;4.68;;;;;;;28.43;41.43;94217.06;4912201;29;20276;-64
2022/08/21 11:25:50;;;;;;;6.90;5.43;;;;;;;28.39;41.24;94224.09;4913990;29;20325;-63
2022/08/21 11:28:39;;;;;;;8.63;4.90;;;;;;;27.59;43.23;94221.63;4894964;29;20237;-63
2022/08/21 11:31:23;;;;;;;7.43;5.20;;;;;;;27.85;42.16;94212.31;4898258;29;20230;-63
2022/08/21 11:33:58;;;;;;;5.65;4.75;;;;;;;28.15;42.36;94219.41;4905577;29;20241;-63
2022/08/21 11:36:44;;;;;;;5.78;4.47;;;;;;;28.42;41.50;94218.13;4904660;29;20308;-63
2022/08/21 11:39:30;;;;;;;6.75;4.35;;;;;;;28.63;40.07;94223.38;4903333;29;20245;-63